createdAt,value
2023-03-26T00:00:54.085Z,21.54
2023-03-26T00:01:54.280Z,21.54
2023-03-26T00:02:54.224Z,21.56
2023-03-26T00:03:54.280Z,21.55
2023-03-26T00:04:54.329Z,21.44
2023-03-26T00:05:54.540Z,21.39
2023-03-26T00:06:54.400Z,21.36
2023-03-26T00:07:54.453Z,21.42
2023-03-26T00:20:54.450Z,21.35
2023-03-26T00:22:54.480Z,21.34
2023-03-26T00:23:54.482Z,21.36
2023-03-26T00:24:54.489Z,21.37
2023-03-26T00:25:54.718Z,21.40
2023-03-26T00:26:54.548Z,21.45
2023-03-26T00:27:54.596Z,21.48
2023-03-26T00:28:54.754Z,21.44
2023-03-26T00:29:54.686Z,21.40
2023-03-26T00:30:54.712Z,21.43
2023-03-26T00:31:54.761Z,21.42
2023-03-26T00:32:54.784Z,21.41
2023-03-26T00:33:54.817Z,21.41
2023-03-26T00:34:54.877Z,21.39
2023-03-26T00:35:55.131Z,21.41
2023-03-26T00:36:55.015Z,21.34
2023-03-26T00:37:55.034Z,21.40
2023-03-26T00:38:55.079Z,21.37
2023-03-26T00:39:55.123Z,21.32
2023-03-26T00:40:56.116Z,21.34
2023-03-26T00:54:55.453Z,21.38
2023-03-26T00:55:55.560Z,21.39
2023-03-26T00:56:55.583Z,21.36
2023-03-26T00:57:55.641Z,21.38
2023-03-26T00:58:55.743Z,21.39
2023-03-26T00:59:55.774Z,21.40
2023-03-26T01:00:55.827Z,21.43
2023-03-26T01:01:55.933Z,21.41
2023-03-26T01:02:56.048Z,21.44
2023-03-26T01:04:07.420Z,21.47
2023-03-26T01:04:56.995Z,21.46
2023-03-26T01:05:56.230Z,21.44
2023-03-26T01:09:55.933Z,21.42
2023-03-26T01:12:55.932Z,21.43
2023-03-26T01:13:56.054Z,21.47
2023-03-26T01:14:56.048Z,21.46
2023-03-26T01:15:56.405Z,21.49
2023-03-26T01:16:56.168Z,21.47
2023-03-26T01:17:56.235Z,21.48
2023-03-26T01:18:56.282Z,21.46
2023-03-26T01:19:56.354Z,21.44
2023-03-26T01:20:56.412Z,21.46
2023-03-26T01:21:56.496Z,21.47
2023-03-26T01:22:56.509Z,21.46
2023-03-26T01:23:56.557Z,21.47
2023-03-26T01:24:56.943Z,21.49
2023-03-26T01:25:56.842Z,21.43
2023-03-26T01:26:56.744Z,21.47
2023-03-26T01:27:56.797Z,21.51
2023-03-26T01:28:56.863Z,21.50
2023-03-26T01:29:56.903Z,21.49
2023-03-26T01:30:56.993Z,21.43
2023-03-26T01:31:57.034Z,21.40
2023-03-26T01:32:57.173Z,21.46
2023-03-26T01:33:57.166Z,21.42
2023-03-26T01:34:57.225Z,21.45
2023-03-26T01:35:57.465Z,21.48
2023-03-26T01:36:57.340Z,21.48
2023-03-26T01:37:57.404Z,21.50
2023-03-26T01:38:58.917Z,21.46
2023-03-26T01:39:57.509Z,21.53
2023-03-26T01:40:57.575Z,21.42
2023-03-26T01:41:57.643Z,21.47
2023-03-26T01:42:57.722Z,21.45
2023-03-26T01:43:57.759Z,21.44
2023-03-26T01:44:57.846Z,21.47
2023-03-26T01:45:57.880Z,21.47
2023-03-26T01:46:57.937Z,21.49
2023-03-26T01:47:58.028Z,21.46
2023-03-26T01:48:58.028Z,21.46
2023-03-26T01:49:58.093Z,21.51
2023-03-26T01:50:58.142Z,21.50
2023-03-26T01:51:58.208Z,21.51
2023-03-26T01:52:58.271Z,21.48
2023-03-26T01:53:58.372Z,21.51
2023-03-26T01:54:58.375Z,21.50
2023-03-26T01:55:58.458Z,21.46
2023-03-26T01:56:58.551Z,21.40
2023-03-26T01:57:58.552Z,21.45
2023-03-26T01:58:58.620Z,21.44
2023-03-26T01:59:58.642Z,21.46
2023-03-26T02:00:58.684Z,21.47
2023-03-26T02:01:58.822Z,21.48
2023-03-26T02:02:58.889Z,21.48
2023-03-26T02:03:58.856Z,21.51
2023-03-26T02:04:58.914Z,21.51
2023-03-26T02:05:58.995Z,21.52
2023-03-26T02:06:59.043Z,21.52
2023-03-26T02:07:59.149Z,21.51
2023-03-26T02:08:59.174Z,21.51
2023-03-26T02:09:59.244Z,21.50
2023-03-26T02:10:59.296Z,21.49
2023-03-26T02:11:59.334Z,21.49
2023-03-26T02:12:59.407Z,21.44
2023-03-26T02:13:59.495Z,21.44
2023-03-26T02:14:59.510Z,21.42
2023-03-26T02:15:59.645Z,21.43
2023-03-26T02:16:59.634Z,21.43
2023-03-26T02:17:59.702Z,21.42
2023-03-26T02:18:59.749Z,21.43
2023-03-26T02:19:59.837Z,21.44
2023-03-26T02:20:59.869Z,21.42
2023-03-26T02:22:00.013Z,21.42
2023-03-26T02:22:59.981Z,21.43
2023-03-26T02:24:00.044Z,21.43
2023-03-26T02:25:00.115Z,21.43
2023-03-26T02:26:00.187Z,21.44
2023-03-26T02:27:00.226Z,21.44
2023-03-26T02:28:00.301Z,21.45
2023-03-26T02:29:00.365Z,21.47
2023-03-26T02:30:00.454Z,21.48
2023-03-26T02:31:00.468Z,21.43
2023-03-26T02:32:00.583Z,21.44
2023-03-26T02:33:00.574Z,21.46
2023-03-26T02:34:00.650Z,21.48
2023-03-26T02:35:00.704Z,21.46
2023-03-26T02:36:00.824Z,21.45
2023-03-26T02:37:00.808Z,21.41
2023-03-26T02:38:00.896Z,21.43
2023-03-26T02:39:00.978Z,21.45
2023-03-26T02:40:00.982Z,21.47
2023-03-26T02:41:01.070Z,21.51
2023-03-26T02:42:01.113Z,21.48
2023-03-26T02:43:01.222Z,21.51
2023-03-26T03:05:02.457Z,21.63
2023-03-26T03:06:02.550Z,21.64
2023-03-26T03:07:02.588Z,21.64
2023-03-26T03:08:02.658Z,21.64
2023-03-26T03:09:02.754Z,21.66
2023-03-26T03:10:02.777Z,21.66
2023-03-26T03:11:02.846Z,21.67
2023-03-26T03:12:02.878Z,21.70
2023-03-26T03:13:02.956Z,21.73
2023-03-26T03:14:02.992Z,21.71
2023-03-26T03:15:03.066Z,21.73
2023-03-26T03:16:03.138Z,21.75
2023-03-26T03:17:03.274Z,21.77
2023-03-26T03:18:03.292Z,21.76
2023-03-26T03:19:03.307Z,21.77
2023-03-26T03:20:03.362Z,21.78
2023-03-26T03:21:03.442Z,21.77
2023-03-26T03:22:03.482Z,21.81
2023-03-26T03:23:03.516Z,21.84
2023-03-26T03:24:03.575Z,21.84
2023-03-26T03:25:03.611Z,21.85
2023-03-26T03:26:03.671Z,21.87
2023-03-26T03:27:03.708Z,21.87
2023-03-26T03:28:03.782Z,21.87
2023-03-26T03:29:03.833Z,21.89
2023-03-26T03:30:03.867Z,21.90
2023-03-26T03:31:04.098Z,21.90
2023-03-26T03:32:04.020Z,21.93
2023-03-26T03:33:04.148Z,21.93
2023-03-26T03:34:04.102Z,21.96
2023-03-26T03:35:04.183Z,21.99
2023-03-26T03:36:04.313Z,22.01
2023-03-26T03:37:04.324Z,21.96
2023-03-26T03:38:04.380Z,21.99
2023-03-26T03:39:04.478Z,22.00
2023-03-26T03:40:04.482Z,22.00
2023-03-26T03:41:04.598Z,22.01
2023-03-26T03:42:04.637Z,22.03
2023-03-26T03:43:04.665Z,22.03
2023-03-26T03:44:04.757Z,22.03
2023-03-26T03:45:04.783Z,22.06
2023-03-26T03:46:04.894Z,22.06
2023-03-26T03:47:04.952Z,22.10
2023-03-26T03:48:05.059Z,22.11
2023-03-26T03:49:05.056Z,22.13
2023-03-26T03:50:05.114Z,22.14
2023-03-26T03:51:05.173Z,22.16
2023-03-26T03:52:05.234Z,22.16
2023-03-26T03:53:05.285Z,22.18
2023-03-26T03:54:05.338Z,22.17
2023-03-26T03:55:05.406Z,22.15
2023-03-26T03:56:05.458Z,22.17
2023-03-26T03:57:05.618Z,22.17
2023-03-26T03:58:05.604Z,22.17
2023-03-26T03:59:05.636Z,22.18
2023-03-26T04:00:06.877Z,22.22
2023-03-26T04:01:05.788Z,22.21
2023-03-26T04:02:05.790Z,22.20
2023-03-26T04:03:05.943Z,22.23
2023-03-26T04:04:06.032Z,22.24
2023-03-26T04:05:05.985Z,22.24
2023-03-26T04:06:06.049Z,22.25
2023-03-26T04:07:06.101Z,22.24
2023-03-26T04:08:06.156Z,22.23
2023-03-26T04:09:06.204Z,22.26
2023-03-26T04:10:06.268Z,22.27
2023-03-26T04:11:06.280Z,22.28
2023-03-26T04:12:06.357Z,22.28
2023-03-26T04:13:06.447Z,22.31
2023-03-26T04:14:06.502Z,22.32
2023-03-26T04:15:06.571Z,22.33
2023-03-26T04:16:06.589Z,22.32
2023-03-26T04:17:06.628Z,22.35
2023-03-26T04:18:06.686Z,22.33
2023-03-26T04:19:06.734Z,22.34
2023-03-26T04:20:06.801Z,22.34
2023-03-26T04:21:06.851Z,22.35
2023-03-26T04:22:06.926Z,22.36
2023-03-26T04:23:06.956Z,22.36
2023-03-26T04:24:07.029Z,22.37
2023-03-26T04:25:07.049Z,22.36
2023-03-26T04:26:07.101Z,22.35
2023-03-26T04:27:07.206Z,22.39
2023-03-26T04:28:07.206Z,22.38
2023-03-26T04:29:07.288Z,22.41
2023-03-26T04:30:07.327Z,22.39
2023-03-26T04:31:07.407Z,22.40
2023-03-26T04:32:07.460Z,22.41
2023-03-26T04:33:07.602Z,22.41
2023-03-26T04:34:07.576Z,22.41
2023-03-26T04:35:07.615Z,22.40
2023-03-26T04:36:07.743Z,22.42
2023-03-26T04:37:07.738Z,22.41
2023-03-26T04:38:07.789Z,22.41
2023-03-26T04:39:07.896Z,22.41
2023-03-26T04:40:07.910Z,22.41
2023-03-26T04:41:07.979Z,22.42
2023-03-26T04:42:08.021Z,22.42
2023-03-26T04:43:08.087Z,22.39
2023-03-26T04:44:08.157Z,22.40
2023-03-26T04:45:08.232Z,22.42
2023-03-26T04:46:08.281Z,22.43
2023-03-26T04:47:08.356Z,22.44
2023-03-26T04:48:08.386Z,22.44
2023-03-26T04:49:08.480Z,22.43
2023-03-26T04:50:08.521Z,22.43
2023-03-26T04:51:08.590Z,22.43
2023-03-26T04:52:08.623Z,22.43
2023-03-26T04:53:08.661Z,22.47
2023-03-26T04:54:08.746Z,22.44
2023-03-26T04:55:08.793Z,22.44
2023-03-26T04:56:08.795Z,22.46
2023-03-26T04:57:08.916Z,22.44
2023-03-26T04:58:08.948Z,22.46
2023-03-26T04:59:09.007Z,22.47
2023-03-26T05:00:09.053Z,22.47
2023-03-26T05:01:10.330Z,22.48
2023-03-26T05:02:09.162Z,22.51
2023-03-26T05:03:09.269Z,22.49
2023-03-26T05:04:09.345Z,22.49
2023-03-26T05:05:09.316Z,22.48
2023-03-26T05:06:09.388Z,22.45
2023-03-26T05:07:09.456Z,22.47
2023-03-26T05:08:09.524Z,22.45
2023-03-26T05:09:09.607Z,22.44
2023-03-26T05:10:09.642Z,22.48
2023-03-26T05:11:09.716Z,22.46
2023-03-26T05:12:09.754Z,22.48
2023-03-26T05:13:09.839Z,22.45
2023-03-26T05:14:09.862Z,22.49
2023-03-26T05:15:09.913Z,22.50
2023-03-26T05:16:10.045Z,22.51
2023-03-26T05:17:10.058Z,22.48
2023-03-26T05:18:10.150Z,22.48
2023-03-26T05:19:10.170Z,22.51
2023-03-26T05:20:10.229Z,22.49
2023-03-26T05:21:10.278Z,22.53
2023-03-26T05:22:10.343Z,22.54
2023-03-26T05:23:10.399Z,22.53
2023-03-26T05:24:10.501Z,22.53
2023-03-26T05:25:10.516Z,22.52
2023-03-26T05:26:10.579Z,22.56
2023-03-26T05:27:10.680Z,22.57
2023-03-26T05:28:10.700Z,22.57
2023-03-26T05:29:10.798Z,22.54
2023-03-26T05:30:10.840Z,22.55
2023-03-26T05:31:10.901Z,22.58
2023-03-26T05:32:10.979Z,22.57
2023-03-26T05:33:11.093Z,22.59
2023-03-26T05:34:11.056Z,22.61
2023-03-26T05:35:11.106Z,22.63
2023-03-26T05:36:11.185Z,22.62
2023-03-26T05:37:11.243Z,22.63
2023-03-26T05:38:11.300Z,22.63
2023-03-26T05:39:11.397Z,22.66
2023-03-26T05:40:11.491Z,22.65
2023-03-26T05:41:11.517Z,22.66
2023-03-26T05:59:12.519Z,22.71
2023-03-26T06:00:12.545Z,22.71
2023-03-26T06:01:12.632Z,22.71
2023-03-26T06:02:12.680Z,22.70
2023-03-26T06:03:13.186Z,22.71
2023-03-26T06:04:12.952Z,22.69
2023-03-26T06:05:12.842Z,22.71
2023-03-26T06:06:12.906Z,22.73
2023-03-26T06:07:12.965Z,22.73
2023-03-26T06:08:13.067Z,22.73
2023-03-26T06:09:13.085Z,22.73
2023-03-26T06:10:18.416Z,22.73
2023-03-26T06:11:14.092Z,22.74
2023-03-26T06:13:13.083Z,22.69
2023-03-26T06:17:13.064Z,22.70
2023-03-26T06:21:13.157Z,22.74
2023-03-26T06:22:13.214Z,22.72
2023-03-26T06:23:13.252Z,22.74
2023-03-26T06:24:13.268Z,22.77
2023-03-26T06:25:13.344Z,22.76
2023-03-26T06:26:13.387Z,22.73
2023-03-26T06:27:13.490Z,22.77
2023-03-26T06:28:13.506Z,22.73
2023-03-26T06:29:13.542Z,22.76
2023-03-26T06:30:13.597Z,22.75
2023-03-26T06:31:13.719Z,22.75
2023-03-26T06:32:19.595Z,22.76
2023-03-26T06:33:14.750Z,22.74
2023-03-26T06:34:13.690Z,22.73
2023-03-26T06:42:13.694Z,22.70
2023-03-26T06:43:13.713Z,22.69
2023-03-26T06:44:13.803Z,22.70
2023-03-26T06:45:13.836Z,22.70
2023-03-26T06:46:13.909Z,22.68
2023-03-26T06:47:13.957Z,22.68
2023-03-26T06:48:13.975Z,22.67
2023-03-26T06:49:14.044Z,22.69
2023-03-26T06:50:14.083Z,22.69
2023-03-26T06:51:14.102Z,22.70
2023-03-26T06:52:14.186Z,22.69
2023-03-26T06:53:14.238Z,22.67
2023-03-26T06:54:14.308Z,22.74
2023-03-26T06:55:14.313Z,22.69
2023-03-26T06:56:14.364Z,22.71
2023-03-26T06:57:14.438Z,22.68
2023-03-26T06:58:14.529Z,22.64
2023-03-26T06:59:14.521Z,22.67
2023-03-26T07:00:14.583Z,22.67
2023-03-26T07:01:14.655Z,22.66
2023-03-26T07:02:14.677Z,22.67
2023-03-26T07:03:14.701Z,22.66
2023-03-26T07:04:14.810Z,22.66
2023-03-26T07:05:14.849Z,22.66
2023-03-26T07:06:14.886Z,22.65
2023-03-26T07:07:14.926Z,22.61
2023-03-26T07:08:14.979Z,22.66
2023-03-26T07:09:15.010Z,22.66
2023-03-26T07:10:15.074Z,22.66
2023-03-26T07:11:15.115Z,22.63
2023-03-26T07:12:15.192Z,22.67
2023-03-26T07:13:15.243Z,22.64
2023-03-26T07:14:15.309Z,22.63
2023-03-26T07:15:15.384Z,22.63
2023-03-26T07:16:15.483Z,22.60
2023-03-26T07:17:15.520Z,22.60
2023-03-26T07:18:15.611Z,22.58
2023-03-26T07:19:15.636Z,22.62
2023-03-26T07:20:15.665Z,22.56
2023-03-26T07:21:15.771Z,22.57
2023-03-26T07:22:15.837Z,22.54
2023-03-26T07:23:15.886Z,22.51
2023-03-26T07:24:15.948Z,22.53
2023-03-26T07:25:16.011Z,22.50
2023-03-26T07:26:16.089Z,22.49
2023-03-26T07:27:16.123Z,22.48
2023-03-26T07:28:16.188Z,22.51
2023-03-26T07:29:16.261Z,22.51
2023-03-26T07:30:16.320Z,22.53
2023-03-26T07:31:16.445Z,22.52
2023-03-26T07:32:18.919Z,22.52
2023-03-26T07:33:16.431Z,22.50
2023-03-26T07:34:16.445Z,22.52
2023-03-26T07:41:16.641Z,22.56
2023-03-26T07:49:16.358Z,22.55
2023-03-26T07:55:16.259Z,22.50
2023-03-26T07:56:16.316Z,22.49
2023-03-26T07:59:16.263Z,22.45
2023-03-26T08:01:16.222Z,22.43
2023-03-26T08:02:16.223Z,22.39
2023-03-26T08:03:16.323Z,22.39
2023-03-26T08:04:24.659Z,22.38
2023-03-26T08:05:17.256Z,22.40
2023-03-26T08:06:16.237Z,22.41
2023-03-26T08:13:16.145Z,22.38
2023-03-26T08:14:16.174Z,22.43
2023-03-26T08:15:16.265Z,22.43
2023-03-26T08:16:16.322Z,22.43
2023-03-26T08:17:16.370Z,22.41
2023-03-26T08:18:16.414Z,22.43
2023-03-26T08:19:16.505Z,22.41
2023-03-26T08:20:16.562Z,22.40
2023-03-26T08:21:16.587Z,22.41
2023-03-26T08:22:16.661Z,22.44
2023-03-26T08:23:16.702Z,22.37
2023-03-26T08:24:16.758Z,22.39
2023-03-26T08:25:16.821Z,22.34
2023-03-26T08:26:16.880Z,22.35
2023-03-26T08:27:16.960Z,22.38
2023-03-26T08:28:17.033Z,22.40
2023-03-26T08:29:17.078Z,22.40
2023-03-26T08:30:17.118Z,22.39
2023-03-26T08:31:17.208Z,22.38
2023-03-26T08:32:17.222Z,22.36
2023-03-26T08:33:17.306Z,22.35
2023-03-26T08:34:17.341Z,22.38
2023-03-26T08:35:17.454Z,22.35
2023-03-26T08:36:17.472Z,22.28
2023-03-26T08:37:17.507Z,22.27
2023-03-26T08:38:17.539Z,22.36
2023-03-26T08:39:17.627Z,22.30
2023-03-26T08:40:17.715Z,22.29
2023-03-26T08:41:17.725Z,22.31
2023-03-26T08:42:17.779Z,22.32
2023-03-26T08:43:17.864Z,22.28
2023-03-26T08:44:17.886Z,22.23
2023-03-26T08:45:17.976Z,22.23
2023-03-26T08:46:18.124Z,22.22
2023-03-26T08:47:18.048Z,22.19
2023-03-26T08:48:18.105Z,22.22
2023-03-26T08:49:18.205Z,22.15
2023-03-26T08:50:18.268Z,22.08
2023-03-26T08:51:18.293Z,22.08
2023-03-26T08:52:18.378Z,22.08
2023-03-26T08:53:18.563Z,22.12
2023-03-26T08:54:18.496Z,22.17
2023-03-26T08:55:18.558Z,22.19
2023-03-26T08:56:18.617Z,22.21
2023-03-26T08:57:18.710Z,22.23
2023-03-26T08:58:18.806Z,22.24
2023-03-26T08:59:18.834Z,22.22
2023-03-26T09:00:18.866Z,22.21
2023-03-26T09:01:18.955Z,22.23
2023-03-26T09:02:18.981Z,22.20
2023-03-26T09:03:19.051Z,22.18
2023-03-26T09:04:19.167Z,22.19
2023-03-26T09:05:19.160Z,22.19
2023-03-26T09:06:19.219Z,22.19
2023-03-26T09:07:19.292Z,22.18
2023-03-26T09:08:19.358Z,22.21
2023-03-26T09:09:19.599Z,22.19
2023-03-26T09:10:19.466Z,22.17
2023-03-26T09:11:19.520Z,22.16
2023-03-26T09:12:19.602Z,22.20
2023-03-26T09:13:19.623Z,22.20
2023-03-26T09:14:19.691Z,22.21
2023-03-26T09:15:19.715Z,22.20
2023-03-26T09:16:19.833Z,22.25
2023-03-26T09:17:19.853Z,21.98
2023-03-26T09:18:19.957Z,22.01
2023-03-26T09:19:19.974Z,22.03
2023-03-26T09:20:20.004Z,22.05
2023-03-26T09:21:20.053Z,22.08
2023-03-26T09:22:20.161Z,22.09
2023-03-26T09:23:20.209Z,22.12
2023-03-26T09:24:20.265Z,22.16
2023-03-26T09:25:20.281Z,22.09
2023-03-26T09:26:20.351Z,22.02
2023-03-26T09:27:20.370Z,22.03
2023-03-26T09:28:20.374Z,22.04
2023-03-26T09:29:20.418Z,22.02
2023-03-26T09:30:20.426Z,21.98
2023-03-26T09:31:20.549Z,22.00
2023-03-26T09:35:20.406Z,22.00
2023-03-26T09:36:20.417Z,22.00
2023-03-26T09:37:20.486Z,22.00
2023-03-26T09:38:20.533Z,21.93
2023-03-26T09:39:20.551Z,21.94
2023-03-26T09:40:20.624Z,21.97
2023-03-26T09:41:20.676Z,21.96
2023-03-26T09:42:20.735Z,21.92
2023-03-26T09:43:20.731Z,21.91
2023-03-26T09:44:20.806Z,21.92
2023-03-26T09:45:20.814Z,21.92
2023-03-26T09:46:20.832Z,21.93
2023-03-26T09:47:20.872Z,21.96
2023-03-26T09:48:20.762Z,21.96
2023-03-26T09:49:20.839Z,21.90
2023-03-26T09:53:20.865Z,21.93
2023-03-26T09:54:20.880Z,21.90
2023-03-26T10:01:20.895Z,21.84
2023-03-26T10:02:20.846Z,21.87
2023-03-26T10:06:20.838Z,21.87
2023-03-26T10:07:20.843Z,21.87
2023-03-26T10:08:20.866Z,21.88
2023-03-26T10:09:20.852Z,21.87
2023-03-26T10:15:21.154Z,21.75
2023-03-26T10:16:20.832Z,21.75
2023-03-26T10:17:20.828Z,21.74
2023-03-26T10:18:27.445Z,21.73
2023-03-26T10:19:21.842Z,21.73
2023-03-26T10:21:22.809Z,21.69
2023-03-26T10:23:20.814Z,21.69
2023-03-26T10:28:20.742Z,21.66
2023-03-26T10:29:20.762Z,21.66
2023-03-26T10:31:20.805Z,21.71
2023-03-26T10:32:20.744Z,21.75
2023-03-26T10:33:20.720Z,21.73
2023-03-26T10:34:29.200Z,21.75
2023-03-26T10:35:21.762Z,21.76
2023-03-26T10:39:36.251Z,21.76
2023-03-26T10:40:21.707Z,21.73
2023-03-26T10:41:20.652Z,21.73
2023-03-26T10:42:20.655Z,21.71
2023-03-26T10:43:20.687Z,21.73
2023-03-26T10:44:20.654Z,21.71
2023-03-26T10:45:20.643Z,21.70
2023-03-26T10:55:20.896Z,21.65
2023-03-26T10:56:20.935Z,21.68
2023-03-26T10:57:21.018Z,21.68
2023-03-26T10:58:21.066Z,21.71
2023-03-26T10:59:21.127Z,21.59
2023-03-26T11:00:21.179Z,21.59
2023-03-26T11:01:21.283Z,21.59
2023-03-26T11:05:21.336Z,21.64
2023-03-26T11:06:21.293Z,21.63
2023-03-26T11:09:21.281Z,21.52
2023-03-26T11:10:21.304Z,21.59
2023-03-26T11:11:21.317Z,21.58
2023-03-26T11:12:27.325Z,21.59
2023-03-26T11:13:22.321Z,21.52
2023-03-26T11:21:21.259Z,21.49
2023-03-26T11:23:21.254Z,21.44
2023-03-26T11:26:21.201Z,21.40
2023-03-26T11:29:32.467Z,21.43
2023-03-26T11:30:22.252Z,21.45
2023-03-26T11:34:21.176Z,21.45
2023-03-26T11:36:21.151Z,21.47
2023-03-26T11:37:21.143Z,21.50
2023-03-26T11:38:21.234Z,21.47
2023-03-26T11:39:21.226Z,21.50
2023-03-26T11:40:21.294Z,21.50
2023-03-26T11:41:22.823Z,21.51
2023-03-26T11:42:21.372Z,21.49
2023-03-26T11:43:21.381Z,21.48
2023-03-26T11:44:21.478Z,21.52
2023-03-26T11:45:21.526Z,21.51
2023-03-26T11:46:21.643Z,21.46
2023-03-26T11:47:21.675Z,21.49
2023-03-26T11:48:21.682Z,21.58
2023-03-26T11:49:21.736Z,21.54
2023-03-26T11:50:21.815Z,21.55
2023-03-26T11:51:21.862Z,21.55
2023-03-26T11:52:21.881Z,21.52
2023-03-26T11:53:21.966Z,21.56
2023-03-26T11:54:21.999Z,21.56
2023-03-26T11:55:22.064Z,21.58
2023-03-26T11:56:22.141Z,21.58
2023-03-26T11:57:22.240Z,21.60
2023-03-26T11:58:22.282Z,21.57
2023-03-26T11:59:22.312Z,21.61
2023-03-26T12:00:22.376Z,21.64
2023-03-26T12:01:22.455Z,21.67
2023-03-26T12:02:22.601Z,21.66
2023-03-26T12:03:22.596Z,21.64
2023-03-26T12:04:22.686Z,21.67
2023-03-26T12:05:22.680Z,21.67
2023-03-26T12:06:22.771Z,21.69
2023-03-26T12:07:22.836Z,21.78
2023-03-26T12:08:22.901Z,21.67
2023-03-26T12:09:22.928Z,21.73
2023-03-26T12:10:22.974Z,21.75
2023-03-26T12:11:23.040Z,21.78
2023-03-26T12:12:23.094Z,21.80
2023-03-26T12:13:23.113Z,21.85
2023-03-26T12:14:23.184Z,21.81
2023-03-26T12:15:23.273Z,21.83
2023-03-26T12:16:23.377Z,21.83
2023-03-26T12:17:31.394Z,21.85
2023-03-26T12:18:24.363Z,21.90
2023-03-26T12:20:23.330Z,21.95
2023-03-26T12:21:23.317Z,22.00
2023-03-26T12:26:23.289Z,21.95
2023-03-26T12:27:23.373Z,21.97
2023-03-26T12:28:23.397Z,22.00
2023-03-26T12:29:23.474Z,22.02
2023-03-26T12:30:23.558Z,22.03
2023-03-26T12:31:23.607Z,22.03
2023-03-26T12:32:29.646Z,22.05
2023-03-26T12:33:24.741Z,22.04
2023-03-26T12:40:08.795Z,22.18
2023-03-26T12:40:24.639Z,22.08
2023-03-26T12:44:41.818Z,21.97
2023-03-26T12:44:43.455Z,21.98
2023-03-26T12:44:47.303Z,22.04
2023-03-26T12:45:24.664Z,22.11
2023-03-26T12:48:23.594Z,22.11
2023-03-26T12:49:23.627Z,22.17
2023-03-26T12:50:34.199Z,22.18
2023-03-26T12:51:24.547Z,22.19
2023-03-26T12:59:23.497Z,22.15
2023-03-26T13:01:23.530Z,22.13
2023-03-26T13:04:23.423Z,22.14
2023-03-26T13:05:23.494Z,22.32
2023-03-26T13:07:23.431Z,22.45
2023-03-26T13:12:23.411Z,23.04
2023-03-26T13:13:23.423Z,23.10
2023-03-26T13:18:23.388Z,23.99
2023-03-26T13:19:23.353Z,24.15
2023-03-26T13:23:23.504Z,24.99
2023-03-26T13:24:23.561Z,24.97
2023-03-26T13:25:23.636Z,25.13
2023-03-26T13:26:23.682Z,25.13
2023-03-26T13:27:23.759Z,25.21
2023-03-26T13:28:23.814Z,25.30
2023-03-26T13:29:23.836Z,25.28
2023-03-26T13:30:23.891Z,25.30
2023-03-26T13:31:23.932Z,25.43
2023-03-26T13:32:24.051Z,25.47
2023-03-26T13:33:24.001Z,25.47
2023-03-26T13:34:24.047Z,25.47
2023-03-26T13:35:24.116Z,25.52
2023-03-26T13:36:24.985Z,25.57
2023-03-26T13:37:24.181Z,25.69
2023-03-26T13:38:24.201Z,25.78
2023-03-26T13:39:24.262Z,25.85
2023-03-26T13:40:24.298Z,25.85
2023-03-26T13:41:24.364Z,25.78
2023-03-26T13:45:24.457Z,25.63
2023-03-26T13:46:24.537Z,25.56
2023-03-26T13:47:24.516Z,25.51
2023-03-26T13:48:24.620Z,25.50
2023-03-26T13:49:24.643Z,25.44
2023-03-26T13:55:24.627Z,25.46
2023-03-26T13:56:24.624Z,25.43
2023-03-26T13:57:24.613Z,25.45
2023-03-26T14:01:24.676Z,25.36
2023-03-26T14:02:24.637Z,25.40
2023-03-26T14:10:24.572Z,25.28
2023-03-26T14:11:24.568Z,25.28
2023-03-26T14:12:24.570Z,25.26
2023-03-26T14:13:24.593Z,25.23
2023-03-26T14:20:24.651Z,25.31
2023-03-26T14:21:24.717Z,25.31
2023-03-26T14:22:24.722Z,25.28
2023-03-26T14:27:24.739Z,25.38
2023-03-26T14:34:24.712Z,25.42
2023-03-26T14:39:24.718Z,25.42
2023-03-26T14:40:24.728Z,25.50
2023-03-26T14:41:24.762Z,25.50
2023-03-26T14:42:24.751Z,25.45
2023-03-26T14:43:24.760Z,25.50
2023-03-26T14:49:24.771Z,25.50
2023-03-26T14:50:24.832Z,25.50
2023-03-26T14:51:24.833Z,25.48
2023-03-26T14:52:24.862Z,25.50
2023-03-26T14:53:24.852Z,25.51
2023-03-26T14:54:24.889Z,25.50
2023-03-26T14:55:24.911Z,25.51
2023-03-26T14:56:24.945Z,25.49
2023-03-26T14:57:24.981Z,25.51
2023-03-26T14:58:25.032Z,25.53
2023-03-26T14:59:25.099Z,25.52
2023-03-26T15:00:25.094Z,25.54
2023-03-26T15:01:25.203Z,25.51
2023-03-26T15:02:25.273Z,25.54
2023-03-26T15:03:25.238Z,25.55
2023-03-26T15:04:25.274Z,25.56
2023-03-26T15:05:25.341Z,25.53
2023-03-26T15:06:25.362Z,25.52
2023-03-26T15:07:25.409Z,25.51
2023-03-26T15:08:33.858Z,25.52
2023-03-26T15:09:26.412Z,25.55
2023-03-26T15:14:25.399Z,25.55
2023-03-26T15:17:25.505Z,25.58
2023-03-26T15:22:26.188Z,25.54
2023-03-26T15:23:25.543Z,25.59
2023-03-26T15:24:25.598Z,25.59
2023-03-26T15:25:25.623Z,25.61
2023-03-26T15:26:25.701Z,25.63
2023-03-26T15:27:25.800Z,25.58
2023-03-26T15:34:26.080Z,25.64
2023-03-26T15:42:26.494Z,25.73
2023-03-26T15:43:26.580Z,25.75
2023-03-26T15:44:26.586Z,25.83
2023-03-26T15:45:26.656Z,25.84
2023-03-26T15:46:26.721Z,25.82
2023-03-26T15:47:26.791Z,25.84
2023-03-26T15:48:26.785Z,25.81
2023-03-26T15:49:26.839Z,25.82
2023-03-26T15:50:26.953Z,25.82
2023-03-26T15:51:26.978Z,25.82
2023-03-26T15:52:27.036Z,25.84
2023-03-26T15:53:27.069Z,25.86
2023-03-26T15:54:27.357Z,25.86
2023-03-26T15:55:27.148Z,25.87
2023-03-26T15:56:27.243Z,25.89
2023-03-26T15:57:27.308Z,25.89
2023-03-26T15:58:27.354Z,25.91
2023-03-26T15:59:27.380Z,25.90
2023-03-26T16:00:27.438Z,25.92
2023-03-26T16:01:27.581Z,25.97
2023-03-26T16:10:27.871Z,26.20
2023-03-26T16:11:27.898Z,26.24
2023-03-26T16:12:27.945Z,26.24
2023-03-26T16:13:27.995Z,26.18
2023-03-26T16:14:27.988Z,26.18
2023-03-26T16:15:28.044Z,26.18
2023-03-26T16:16:28.093Z,26.16
2023-03-26T16:17:28.137Z,26.18
2023-03-26T16:18:28.174Z,26.16
2023-03-26T16:19:28.189Z,26.18
2023-03-26T16:20:28.260Z,26.18
2023-03-26T16:21:31.410Z,26.21
2023-03-26T16:23:28.290Z,26.20
2023-03-26T16:29:28.220Z,26.32
2023-03-26T16:30:28.199Z,26.34
2023-03-26T16:31:38.849Z,26.33
2023-03-26T16:32:29.238Z,26.39
2023-03-26T16:36:28.186Z,26.45
2023-03-26T16:37:28.178Z,26.44
2023-03-26T16:40:28.212Z,26.49
2023-03-26T16:41:28.220Z,26.49
2023-03-26T16:42:28.417Z,26.49
2023-03-26T16:43:28.329Z,26.48
2023-03-26T16:44:28.361Z,26.48
2023-03-26T16:45:28.410Z,26.52
2023-03-26T16:46:28.584Z,26.55
2023-03-26T16:47:28.574Z,26.53
2023-03-26T16:48:28.580Z,26.55
2023-03-26T16:49:28.614Z,26.66
2023-03-26T16:50:28.666Z,26.68
2023-03-26T16:51:28.778Z,26.68
2023-03-26T16:52:28.780Z,26.71
2023-03-26T16:53:28.831Z,26.72
2023-03-26T16:54:28.872Z,26.70
2023-03-26T16:55:28.935Z,26.72
2023-03-26T16:56:29.014Z,26.74
2023-03-26T16:57:29.031Z,26.72
2023-03-26T16:58:29.074Z,26.75
2023-03-26T16:59:29.134Z,26.77
2023-03-26T17:00:29.202Z,26.76
2023-03-26T17:01:29.236Z,26.77
2023-03-26T17:02:29.367Z,26.77
2023-03-26T17:03:29.423Z,26.78
2023-03-26T17:04:29.431Z,26.79
2023-03-26T17:05:29.481Z,26.83
2023-03-26T17:06:29.538Z,26.85
2023-03-26T17:07:29.602Z,26.84
2023-03-26T17:08:35.661Z,26.83
2023-03-26T17:09:30.652Z,26.84
2023-03-26T17:12:29.622Z,26.86
2023-03-26T17:14:29.665Z,26.87
2023-03-26T17:17:29.664Z,26.90
2023-03-26T17:18:29.758Z,26.91
2023-03-26T17:19:29.773Z,26.92
2023-03-26T17:20:29.750Z,26.87
2023-03-26T17:21:29.847Z,26.96
2023-03-26T17:22:30.811Z,26.95
2023-03-26T17:26:29.776Z,27.02
2023-03-26T17:27:29.765Z,27.00
2023-03-26T17:28:29.798Z,27.11
2023-03-26T17:48:30.102Z,27.13
2023-03-26T17:49:30.116Z,27.13
2023-03-26T17:50:30.198Z,27.13
2023-03-26T17:51:30.249Z,27.20
2023-03-26T17:52:30.280Z,27.25
2023-03-26T17:53:30.300Z,27.23
2023-03-26T17:54:30.342Z,27.24
2023-03-26T17:55:30.420Z,27.22
2023-03-26T17:56:30.405Z,27.20
2023-03-26T17:57:30.468Z,27.19
2023-03-26T17:58:30.498Z,27.19
2023-03-26T17:59:30.519Z,27.18
2023-03-26T18:00:30.524Z,27.17
2023-03-26T18:01:30.598Z,27.21
2023-03-26T18:02:30.623Z,27.20
2023-03-26T18:03:31.150Z,27.20
2023-03-26T18:04:30.649Z,27.22
2023-03-26T18:05:30.678Z,27.20
2023-03-26T18:10:30.834Z,27.19
2023-03-26T18:11:30.851Z,27.18
2023-03-26T18:12:30.867Z,27.17
2023-03-26T18:13:30.921Z,27.16
2023-03-26T18:14:30.925Z,27.19